createdAt,value
2023-04-22T00:00:01.710Z,89.00
2023-04-22T00:00:14.108Z,89.20
2023-04-22T00:00:25.903Z,89.10
2023-04-22T00:00:38.162Z,89.10
2023-04-22T00:00:49.998Z,89.00
2023-04-22T00:01:02.367Z,89.10
2023-04-22T00:01:14.160Z,89.10
2023-04-22T00:01:25.993Z,89.10
2023-04-22T00:01:38.182Z,89.20
2023-04-22T00:01:50.038Z,89.20
2023-04-22T00:02:02.487Z,89.30
2023-04-22T00:02:16.920Z,89.40
2023-04-22T00:02:29.699Z,89.20
2023-04-22T00:02:41.672Z,89.10
2023-04-22T00:02:53.742Z,89.20
2023-04-22T00:03:05.978Z,89.00
2023-04-22T00:03:18.168Z,89.10
2023-04-22T00:03:30.250Z,89.30
2023-04-22T00:03:42.376Z,89.30
2023-04-22T00:03:54.712Z,89.10
2023-04-22T00:04:07.605Z,89.10
2023-04-22T00:04:21.503Z,89.00
2023-04-22T00:04:34.240Z,89.00
2023-04-22T00:04:46.695Z,89.10
2023-04-22T00:04:58.971Z,89.30
2023-04-22T00:05:15.676Z,89.20
2023-04-22T00:05:28.952Z,89.10
2023-04-22T00:05:42.154Z,89.40
2023-04-22T00:05:54.631Z,89.60
2023-04-22T00:06:06.751Z,89.30
2023-04-22T00:06:18.787Z,89.10
2023-04-22T00:06:32.000Z,89.00
2023-04-22T00:06:44.041Z,89.00
2023-04-22T00:06:55.984Z,89.10
2023-04-22T00:07:07.763Z,89.10
2023-04-22T00:07:19.571Z,89.30
2023-04-22T00:07:31.512Z,89.20
2023-04-22T00:07:43.509Z,89.20
2023-04-22T00:07:55.309Z,89.20
2023-04-22T00:08:07.178Z,89.40
2023-04-22T00:08:19.028Z,89.30
2023-04-22T00:08:30.756Z,89.40
2023-04-22T00:08:42.527Z,89.30
2023-04-22T00:08:54.312Z,89.50
2023-04-22T00:09:06.260Z,89.50
2023-04-22T00:09:18.062Z,89.40
2023-04-22T00:09:29.859Z,89.40
2023-04-22T00:09:42.179Z,89.40
2023-04-22T00:09:54.005Z,89.30
2023-04-22T00:10:06.589Z,89.50
2023-04-22T00:10:18.400Z,89.30
2023-04-22T00:10:30.112Z,89.40
2023-04-22T00:10:41.905Z,89.50
2023-04-22T00:10:53.638Z,89.50
2023-04-22T00:11:05.798Z,89.60
2023-04-22T00:11:17.565Z,89.70
2023-04-22T00:11:29.356Z,89.30
2023-04-22T00:11:41.147Z,89.50
2023-04-22T00:11:52.911Z,89.80
2023-04-22T00:12:04.944Z,89.80
2023-04-22T00:12:16.769Z,89.50
2023-04-22T00:12:28.565Z,89.60
2023-04-22T00:12:40.378Z,89.70
2023-04-22T00:12:52.110Z,89.30
2023-04-22T00:13:03.876Z,89.30
2023-04-22T00:13:15.639Z,90.00
2023-04-22T00:13:27.406Z,89.50
2023-04-22T00:13:39.302Z,89.60
2023-04-22T00:13:51.097Z,89.70
2023-04-22T00:14:02.837Z,89.50
2023-04-22T00:14:14.729Z,89.60
2023-04-22T00:14:26.474Z,89.30
2023-04-22T00:14:38.769Z,89.60
2023-04-22T00:14:50.732Z,89.70
2023-04-22T00:15:02.542Z,89.40
2023-04-22T00:15:14.371Z,89.30
2023-04-22T00:15:27.118Z,89.30
2023-04-22T00:15:38.934Z,89.30
2023-04-22T00:15:51.268Z,89.30
2023-04-22T00:16:06.940Z,89.30
2023-04-22T00:16:18.935Z,89.20
2023-04-22T00:16:30.846Z,89.30
2023-04-22T00:16:42.691Z,89.30
2023-04-22T00:16:54.570Z,89.20
2023-04-22T00:17:07.426Z,89.30
2023-04-22T00:17:19.512Z,89.30
2023-04-22T00:17:31.468Z,89.40
2023-04-22T00:17:43.647Z,89.30
2023-04-22T00:17:55.608Z,89.40
2023-04-22T00:18:13.806Z,89.30
2023-04-22T00:18:26.126Z,89.10
2023-04-22T00:18:38.267Z,89.50
2023-04-22T00:18:50.190Z,88.80
2023-04-22T00:19:01.957Z,88.80
2023-04-22T00:19:13.728Z,89.10
2023-04-22T00:19:25.732Z,89.20
2023-04-22T00:19:37.759Z,89.10
2023-04-22T00:19:49.971Z,89.00
2023-04-22T00:20:01.823Z,89.20
2023-04-22T00:20:13.715Z,89.10
2023-04-22T00:20:25.721Z,89.20
2023-04-22T00:20:37.556Z,89.20
2023-04-22T00:20:49.342Z,88.80
2023-04-22T00:21:01.225Z,88.90
2023-04-22T00:21:13.018Z,89.00
2023-04-22T00:21:24.792Z,89.30
2023-04-22T00:21:36.736Z,89.20
2023-04-22T00:21:48.476Z,89.10
2023-04-22T00:22:00.193Z,89.10
2023-04-22T00:22:11.967Z,89.30
2023-04-22T00:22:23.700Z,89.30
2023-04-22T00:22:35.650Z,89.30
2023-04-22T00:22:47.712Z,89.30
2023-04-22T00:22:59.594Z,89.30
2023-04-22T00:23:12.096Z,89.30
2023-04-22T00:23:23.944Z,89.30
2023-04-22T00:23:35.774Z,89.30
2023-04-22T00:23:47.538Z,89.40
2023-04-22T00:23:59.282Z,89.00
2023-04-22T00:24:11.053Z,89.00
2023-04-22T00:24:22.781Z,89.00
2023-04-22T00:24:34.522Z,89.00
2023-04-22T00:24:46.263Z,89.20
2023-04-22T00:24:58.080Z,89.30
2023-04-22T00:25:09.902Z,89.00
2023-04-22T00:25:21.813Z,88.90
2023-04-22T00:25:33.604Z,88.80
2023-04-22T00:25:45.416Z,89.10
2023-04-22T00:25:57.239Z,89.00
2023-04-22T00:26:08.954Z,88.80
2023-04-22T00:26:20.662Z,88.60
2023-04-22T00:26:32.378Z,88.50
2023-04-22T00:26:44.160Z,88.50
2023-04-22T00:26:56.099Z,88.50
2023-04-22T00:27:08.140Z,88.50
2023-04-22T00:27:19.842Z,88.60
2023-04-22T00:27:31.553Z,88.50
2023-04-22T00:27:44.911Z,88.60
2023-04-22T00:27:56.645Z,88.60
2023-04-22T00:28:08.410Z,88.20
2023-04-22T00:28:20.352Z,88.40
2023-04-22T00:28:32.200Z,88.40
2023-04-22T00:28:44.106Z,88.30
2023-04-22T00:28:55.901Z,88.50
2023-04-22T00:29:07.694Z,88.60
2023-04-22T00:29:19.431Z,88.70
2023-04-22T00:29:31.221Z,88.70
2023-04-22T00:29:42.988Z,88.80
2023-04-22T00:29:54.705Z,88.50
2023-04-22T00:30:07.134Z,88.60
2023-04-22T00:30:18.932Z,88.70
2023-04-22T00:30:30.945Z,88.70
2023-04-22T00:30:42.707Z,88.70
2023-04-22T00:30:54.642Z,88.60
2023-04-22T00:31:06.770Z,88.60
2023-04-22T00:31:18.554Z,88.90
2023-04-22T00:31:30.829Z,88.90
2023-04-22T00:31:42.820Z,89.00
2023-04-22T00:31:54.704Z,89.00
2023-04-22T00:32:06.711Z,88.90
2023-04-22T00:32:18.919Z,88.70
2023-04-22T00:32:30.916Z,88.90
2023-04-22T00:32:42.789Z,88.80
2023-04-22T00:32:54.806Z,88.70
2023-04-22T00:33:06.758Z,88.60
2023-04-22T00:33:18.542Z,88.70
2023-04-22T00:33:31.129Z,88.60
2023-04-22T00:33:42.910Z,89.20
2023-04-22T00:33:54.585Z,88.70
2023-04-22T00:34:06.349Z,88.80
2023-04-22T00:34:18.146Z,88.80
2023-04-22T00:34:30.015Z,88.90
2023-04-22T00:34:41.730Z,89.00
2023-04-22T00:34:53.427Z,89.50
2023-04-22T00:35:05.765Z,88.70
2023-04-22T00:35:17.701Z,88.60
2023-04-22T00:35:29.470Z,88.60
2023-04-22T00:35:41.193Z,88.60
2023-04-22T00:35:54.722Z,88.50
2023-04-22T00:36:06.949Z,88.60
2023-04-22T00:36:18.707Z,88.50
2023-04-22T00:36:31.416Z,88.10
2023-04-22T00:36:43.272Z,88.10
2023-04-22T00:36:55.446Z,88.00
2023-04-22T00:37:07.160Z,88.10
2023-04-22T00:37:18.902Z,88.00
2023-04-22T00:37:30.832Z,88.00
2023-04-22T00:37:42.640Z,87.90
2023-04-22T00:37:54.484Z,87.90
2023-04-22T00:38:06.274Z,87.90
2023-04-22T00:38:18.108Z,87.90
2023-04-22T00:38:30.543Z,88.10
2023-04-22T00:38:43.588Z,88.40
2023-04-22T00:38:55.370Z,88.20
2023-04-22T00:39:07.167Z,88.40
2023-04-22T00:39:18.917Z,88.50
2023-04-22T00:39:30.681Z,88.60
2023-04-22T00:39:42.706Z,88.30
2023-04-22T00:39:54.790Z,88.50
2023-04-22T00:40:07.426Z,88.60
2023-04-22T00:40:19.469Z,88.50
2023-04-22T00:40:31.401Z,88.30
2023-04-22T00:40:43.312Z,88.60
2023-04-22T00:40:55.202Z,88.60
2023-04-22T00:41:06.938Z,88.50
2023-04-22T00:41:18.747Z,88.90
2023-04-22T00:41:31.259Z,88.50
2023-04-22T00:41:43.316Z,88.60
2023-04-22T00:41:55.193Z,88.60
2023-04-22T00:42:07.640Z,88.60
2023-04-22T00:42:19.741Z,88.70
2023-04-22T00:42:31.532Z,88.80
2023-04-22T00:42:43.557Z,88.90
2023-04-22T00:42:55.297Z,88.80
2023-04-22T00:43:07.588Z,88.70
2023-04-22T00:43:19.402Z,88.30
2023-04-22T00:43:31.249Z,88.50
2023-04-22T00:43:43.212Z,88.60
2023-04-22T00:43:55.097Z,88.70
2023-04-22T00:44:09.952Z,88.50
2023-04-22T00:44:22.510Z,88.40
2023-04-22T00:44:34.238Z,88.70
2023-04-22T00:44:46.901Z,88.80
2023-04-22T00:44:58.729Z,88.70
2023-04-22T00:45:11.397Z,88.50
2023-04-22T00:45:23.286Z,88.10
2023-04-22T00:45:36.841Z,88.10
2023-04-22T00:45:49.379Z,88.20
2023-04-22T00:46:01.343Z,88.20
2023-04-22T00:46:13.261Z,88.10
2023-04-22T00:46:25.092Z,88.10
2023-04-22T00:46:38.351Z,88.20
2023-04-22T00:46:50.289Z,88.20
2023-04-22T00:47:02.128Z,88.20
2023-04-22T00:47:14.044Z,88.40
2023-04-22T00:47:27.127Z,88.40
2023-04-22T00:47:39.068Z,88.30
2023-04-22T00:47:51.036Z,88.30
2023-04-22T00:48:02.891Z,88.30
2023-04-22T00:48:15.092Z,88.20
2023-04-22T00:48:28.806Z,88.20
2023-04-22T00:48:40.790Z,88.10
2023-04-22T00:48:52.979Z,88.20
2023-04-22T00:49:05.373Z,88.20
2023-04-22T00:49:17.170Z,88.10
2023-04-22T00:49:29.178Z,88.10
2023-04-22T00:49:41.282Z,88.10
2023-04-22T00:49:53.834Z,88.00
2023-04-22T00:50:06.307Z,88.10
2023-04-22T00:50:18.113Z,88.00
2023-04-22T00:50:30.008Z,88.00
2023-04-22T00:50:41.804Z,88.40
2023-04-22T00:50:53.604Z,88.40
2023-04-22T00:51:05.891Z,88.30
2023-04-22T00:51:17.718Z,88.20
2023-04-22T00:51:29.619Z,87.80
2023-04-22T00:51:41.386Z,87.70
2023-04-22T00:51:53.855Z,87.80
2023-04-22T00:52:05.717Z,87.80
2023-04-22T00:52:17.477Z,87.70
2023-04-22T00:52:29.258Z,87.90
2023-04-22T00:52:41.080Z,87.90
2023-04-22T00:52:52.888Z,87.80
2023-04-22T00:53:04.669Z,87.80
2023-04-22T00:53:16.711Z,87.80
2023-04-22T00:53:28.494Z,87.90
2023-04-22T00:53:40.345Z,87.90
2023-04-22T00:53:52.138Z,88.00
2023-04-22T00:54:04.859Z,88.00
2023-04-22T00:54:16.981Z,88.20
2023-04-22T00:54:29.234Z,88.10
2023-04-22T00:54:41.132Z,88.00
2023-04-22T00:54:52.971Z,88.00
2023-04-22T00:55:05.596Z,88.00
2023-04-22T00:55:17.392Z,88.20
2023-04-22T00:55:29.215Z,88.20
2023-04-22T00:55:41.139Z,88.40
2023-04-22T00:55:52.868Z,88.20
2023-04-22T00:56:04.792Z,88.20
2023-04-22T00:56:16.625Z,88.40
2023-04-22T00:56:28.566Z,88.20
2023-04-22T00:56:40.398Z,88.20
2023-04-22T00:56:52.237Z,88.20
2023-04-22T00:57:04.092Z,88.20
2023-04-22T00:57:16.046Z,88.00
2023-04-22T00:57:27.973Z,88.20
2023-04-22T00:57:39.852Z,88.20
2023-04-22T00:57:51.578Z,88.20
2023-04-22T00:58:03.567Z,88.40
2023-04-22T00:58:15.337Z,88.40
2023-04-22T00:58:28.941Z,88.40
2023-04-22T00:58:40.702Z,88.40
2023-04-22T00:58:53.853Z,88.60
2023-04-22T00:59:05.618Z,88.40
2023-04-22T00:59:17.444Z,88.60
2023-04-22T00:59:29.219Z,88.50
2023-04-22T00:59:41.249Z,88.40
2023-04-22T00:59:53.241Z,88.40
2023-04-22T01:00:05.747Z,88.50
2023-04-22T01:00:17.925Z,88.40
2023-04-22T01:00:29.737Z,88.50
2023-04-22T01:00:41.582Z,88.30
2023-04-22T01:00:53.585Z,88.40
2023-04-22T01:01:05.758Z,88.40
2023-04-22T01:01:17.671Z,88.50
2023-04-22T01:01:30.097Z,88.50
2023-04-22T01:01:42.094Z,88.40
2023-04-22T01:01:54.015Z,88.40
2023-04-22T01:02:06.106Z,88.50
2023-04-22T01:02:18.693Z,88.60
2023-04-22T01:02:30.644Z,88.50
2023-04-22T01:02:42.554Z,88.60
2023-04-22T01:02:55.001Z,88.60
2023-04-22T01:03:07.431Z,88.70
2023-04-22T01:03:20.629Z,88.40
2023-04-22T01:03:33.414Z,88.30
2023-04-22T01:03:45.517Z,88.20
2023-04-22T01:03:57.899Z,88.30
2023-04-22T01:04:12.760Z,88.30
2023-04-22T01:04:24.702Z,88.10
2023-04-22T01:04:36.538Z,88.20
2023-04-22T01:04:48.299Z,88.20
2023-04-22T01:05:00.186Z,88.10
2023-04-22T01:05:11.921Z,88.30
2023-04-22T01:05:24.481Z,88.50
2023-04-22T01:05:36.346Z,88.50
2023-04-22T01:05:48.656Z,88.30
2023-04-22T01:06:00.480Z,88.20
2023-04-22T01:06:12.410Z,88.20
2023-04-22T01:06:24.567Z,88.20
2023-04-22T01:06:36.374Z,88.10
2023-04-22T01:06:48.259Z,88.30
2023-04-22T01:06:59.975Z,88.20
2023-04-22T01:07:11.716Z,88.20
2023-04-22T01:07:23.577Z,88.10
2023-04-22T01:07:36.555Z,88.20
2023-04-22T01:07:48.354Z,88.20
2023-04-22T01:08:00.163Z,88.20
2023-04-22T01:08:12.464Z,88.00
2023-04-22T01:08:25.977Z,88.10
2023-04-22T01:08:37.809Z,88.20
2023-04-22T01:08:49.566Z,88.00
2023-04-22T01:09:01.323Z,88.00
2023-04-22T01:09:13.529Z,88.00
2023-04-22T01:09:25.298Z,88.30
2023-04-22T01:09:37.576Z,88.30
2023-04-22T01:09:49.963Z,88.10
2023-04-22T01:10:02.103Z,88.00
2023-04-22T01:10:13.844Z,87.80
2023-04-22T01:10:25.636Z,87.90
2023-04-22T01:10:37.405Z,87.90
2023-04-22T01:10:49.147Z,88.00
2023-04-22T01:11:00.973Z,88.10
2023-04-22T01:11:13.511Z,87.90
2023-04-22T01:11:25.619Z,87.90
2023-04-22T01:11:37.475Z,87.50
2023-04-22T01:11:49.432Z,87.80
2023-04-22T01:12:01.711Z,87.70
2023-04-22T01:12:13.584Z,87.50
2023-04-22T01:12:25.323Z,87.60
2023-04-22T01:12:37.274Z,87.90
2023-04-22T01:12:49.003Z,87.90
2023-04-22T01:13:01.080Z,87.80
2023-04-22T01:13:12.897Z,87.50
2023-04-22T01:13:24.661Z,87.20
2023-04-22T01:13:38.239Z,87.20
2023-04-22T01:13:50.378Z,87.50
2023-04-22T01:14:02.976Z,87.40
2023-04-22T01:14:14.799Z,87.50
2023-04-22T01:14:27.065Z,87.30
2023-04-22T01:14:38.838Z,87.10
2023-04-22T01:14:50.821Z,87.30
2023-04-22T01:15:04.779Z,87.60
2023-04-22T01:15:16.919Z,87.70
2023-04-22T01:15:28.826Z,87.70
2023-04-22T01:15:40.756Z,87.60
2023-04-22T01:15:53.202Z,87.30
2023-04-22T01:16:06.192Z,87.40
2023-04-22T01:16:18.027Z,87.40
2023-04-22T01:16:31.207Z,87.70
2023-04-22T01:16:43.854Z,87.80
2023-04-22T01:16:56.055Z,87.60
2023-04-22T01:17:10.187Z,87.50
2023-04-22T01:17:22.169Z,87.50
2023-04-22T01:17:34.140Z,87.40
2023-04-22T01:17:46.096Z,87.30
2023-04-22T01:17:58.101Z,87.20
2023-04-22T01:18:10.180Z,87.40
2023-04-22T01:18:21.945Z,87.80
2023-04-22T01:18:34.007Z,87.40
2023-04-22T01:18:46.333Z,87.60
2023-04-22T01:18:58.161Z,87.60
2023-04-22T01:19:11.135Z,87.60
2023-04-22T01:19:23.925Z,87.50
2023-04-22T01:19:35.677Z,87.30
2023-04-22T01:19:48.642Z,87.30
2023-04-22T01:20:00.492Z,87.70
2023-04-22T01:20:12.518Z,87.00
2023-04-22T01:20:24.259Z,86.90
2023-04-22T01:20:36.053Z,86.90
2023-04-22T01:20:47.816Z,86.90
2023-04-22T01:20:59.699Z,87.00
2023-04-22T01:21:11.943Z,87.10
2023-04-22T01:21:24.362Z,87.10
2023-04-22T01:21:36.164Z,87.10
2023-04-22T01:21:47.912Z,87.10
2023-04-22T01:21:59.678Z,87.30
2023-04-22T01:22:12.981Z,87.20
2023-04-22T01:22:29.585Z,87.40
2023-04-22T01:22:42.361Z,87.40
2023-04-22T01:22:54.316Z,87.20
2023-04-22T01:23:06.060Z,86.90
2023-04-22T01:23:19.616Z,86.90
2023-04-22T01:23:31.426Z,86.80
2023-04-22T01:23:43.179Z,86.30
2023-04-22T01:23:55.168Z,86.60
2023-04-22T01:24:08.046Z,86.70
2023-04-22T01:24:19.998Z,86.80
2023-04-22T01:24:31.730Z,86.70
2023-04-22T01:24:43.684Z,86.90
2023-04-22T01:24:55.838Z,86.90
2023-04-22T01:25:09.182Z,87.10
2023-04-22T01:25:21.098Z,87.00
2023-04-22T01:25:33.014Z,87.20
2023-04-22T01:25:44.927Z,87.20
2023-04-22T01:25:56.842Z,87.20
2023-04-22T01:26:08.646Z,87.30
2023-04-22T01:26:20.715Z,87.20
2023-04-22T01:26:32.642Z,87.40
2023-04-22T01:26:44.412Z,87.30
2023-04-22T01:26:56.692Z,87.20
2023-04-22T01:27:08.782Z,87.30
2023-04-22T01:27:20.648Z,87.20
2023-04-22T01:27:32.643Z,87.60
2023-04-22T01:27:44.568Z,87.40
2023-04-22T01:27:56.385Z,87.40
2023-04-22T01:28:08.279Z,87.50
2023-04-22T01:28:20.098Z,87.20
2023-04-22T01:28:32.332Z,87.40
2023-04-22T01:28:44.146Z,87.50
2023-04-22T01:28:56.081Z,87.70
2023-04-22T01:29:07.943Z,87.60
2023-04-22T01:29:19.754Z,87.70
2023-04-22T01:29:31.505Z,87.70
2023-04-22T01:29:43.531Z,87.80
2023-04-22T01:29:55.482Z,88.00
2023-04-22T01:30:07.899Z,87.70
2023-04-22T01:30:19.922Z,87.70
2023-04-22T01:30:31.684Z,87.50
2023-04-22T01:30:43.610Z,87.50
2023-04-22T01:30:55.619Z,87.50
2023-04-22T01:31:07.515Z,87.20
2023-04-22T01:31:19.274Z,87.20
2023-04-22T01:31:31.259Z,87.00
2023-04-22T01:31:43.090Z,86.80
2023-04-22T01:31:56.109Z,86.70
2023-04-22T01:32:08.065Z,86.80
2023-04-22T01:32:20.050Z,86.70
2023-04-22T01:32:32.517Z,86.80
2023-04-22T01:32:44.486Z,86.70
2023-04-22T01:32:56.294Z,86.60
2023-04-22T01:33:09.183Z,86.60
2023-04-22T01:33:21.170Z,86.60
2023-04-22T01:33:33.674Z,86.40
2023-04-22T01:33:45.499Z,86.40
2023-04-22T01:33:57.917Z,86.70
2023-04-22T01:34:09.704Z,86.70
2023-04-22T01:34:22.239Z,86.60
2023-04-22T01:34:33.976Z,86.80
2023-04-22T01:34:45.886Z,86.80
2023-04-22T01:34:58.022Z,86.80
2023-04-22T01:35:10.254Z,86.80
2023-04-22T01:35:22.024Z,86.60
2023-04-22T01:35:37.273Z,85.80
2023-04-22T01:35:49.144Z,85.90
2023-04-22T01:36:01.101Z,86.00
2023-04-22T01:36:13.337Z,86.00
2023-04-22T01:36:25.416Z,86.00
2023-04-22T01:36:37.278Z,85.70
2023-04-22T01:36:50.138Z,85.70
2023-04-22T01:37:02.008Z,85.40
2023-04-22T01:37:13.766Z,85.40
2023-04-22T01:37:25.573Z,85.40
2023-04-22T01:37:37.414Z,85.50
2023-04-22T01:37:49.142Z,85.50
2023-04-22T01:38:01.041Z,85.50
2023-04-22T01:38:12.835Z,85.40
2023-04-22T01:38:24.808Z,85.60
2023-04-22T01:38:36.606Z,85.60
2023-04-22T01:38:48.410Z,85.60
2023-04-22T01:39:00.507Z,85.40
2023-04-22T01:39:12.768Z,85.30
2023-04-22T01:39:24.617Z,85.20
2023-04-22T01:39:36.383Z,85.40
2023-04-22T01:39:48.200Z,85.00
2023-04-22T01:39:59.942Z,85.30
2023-04-22T01:40:12.292Z,85.20
2023-04-22T01:40:24.019Z,85.30
2023-04-22T01:40:35.838Z,85.20
2023-04-22T01:40:47.619Z,85.40
2023-04-22T01:41:01.566Z,85.20
2023-04-22T01:41:13.823Z,85.50
2023-04-22T01:41:25.544Z,85.50
2023-04-22T01:41:37.341Z,85.60
2023-04-22T01:41:49.105Z,86.20
2023-04-22T01:42:02.225Z,85.40
2023-04-22T01:42:14.458Z,85.40
2023-04-22T01:42:26.620Z,85.50
2023-04-22T01:42:38.456Z,85.60
2023-04-22T01:42:50.649Z,85.50
2023-04-22T01:43:02.757Z,85.70
2023-04-22T01:43:14.512Z,85.80
2023-04-22T01:43:26.249Z,85.70
2023-04-22T01:43:38.075Z,85.70
2023-04-22T01:43:50.271Z,85.60
2023-04-22T01:44:03.161Z,85.80
2023-04-22T01:44:14.993Z,85.60
2023-04-22T01:44:27.038Z,85.70
2023-04-22T01:44:38.774Z,85.80
2023-04-22T01:44:50.706Z,85.80
2023-04-22T01:45:02.534Z,85.80
2023-04-22T01:45:17.430Z,85.80
2023-04-22T01:45:29.960Z,85.90
2023-04-22T01:45:41.946Z,86.00
2023-04-22T01:45:53.970Z,85.80
2023-04-22T01:46:06.267Z,85.80
2023-04-22T01:46:18.172Z,85.70
2023-04-22T01:46:30.176Z,85.80
2023-04-22T01:46:42.064Z,85.90
2023-04-22T01:46:54.048Z,85.90
2023-04-22T01:47:06.198Z,85.90
2023-04-22T01:47:18.089Z,85.90
2023-04-22T01:47:29.978Z,86.00
2023-04-22T01:47:41.789Z,86.00
2023-04-22T01:47:53.810Z,86.00
2023-04-22T01:48:07.063Z,85.90
2023-04-22T01:48:18.953Z,85.90
2023-04-22T01:48:30.772Z,85.60
2023-04-22T01:48:42.643Z,85.90
2023-04-22T01:48:54.384Z,86.10
2023-04-22T01:49:06.181Z,86.00
2023-04-22T01:49:17.996Z,85.90
2023-04-22T01:49:29.698Z,85.90
2023-04-22T01:49:42.095Z,86.00
2023-04-22T01:49:54.109Z,86.00
2023-04-22T01:50:06.656Z,86.00
2023-04-22T01:50:18.656Z,86.00
2023-04-22T01:50:30.535Z,86.10
2023-04-22T01:50:42.285Z,86.70
2023-04-22T01:50:54.089Z,86.00
2023-04-22T01:51:05.903Z,85.90
2023-04-22T01:51:20.370Z,86.00
2023-04-22T01:51:32.496Z,86.20
2023-04-22T01:51:44.253Z,86.30
2023-04-22T01:51:56.577Z,86.30
2023-04-22T01:52:08.460Z,86.40
2023-04-22T01:52:20.473Z,86.40
2023-04-22T01:52:32.352Z,86.50
2023-04-22T01:52:44.156Z,86.50
2023-04-22T01:52:56.179Z,86.50
2023-04-22T01:53:08.540Z,86.50
2023-04-22T01:53:20.334Z,86.40
2023-04-22T01:53:32.066Z,86.40
2023-04-22T01:53:44.270Z,86.20
2023-04-22T01:53:56.183Z,86.50
2023-04-22T01:54:07.921Z,86.30
2023-04-22T01:54:19.700Z,86.20
2023-04-22T01:54:31.432Z,86.00
2023-04-22T01:54:43.190Z,86.00
2023-04-22T01:54:54.964Z,86.20
2023-04-22T01:55:07.932Z,86.10
2023-04-22T01:55:19.680Z,86.10
2023-04-22T01:55:36.027Z,86.20
2023-04-22T01:55:47.801Z,86.20
2023-04-22T01:55:59.962Z,86.40
2023-04-22T01:56:11.745Z,86.50
2023-04-22T01:56:23.571Z,86.60
2023-04-22T01:56:35.561Z,86.70
2023-04-22T01:56:53.365Z,86.40
2023-04-22T01:57:10.054Z,86.40
2023-04-22T01:57:21.895Z,86.50
2023-04-22T01:57:33.654Z,86.80
2023-04-22T01:57:45.748Z,86.70
2023-04-22T01:57:57.507Z,86.70
2023-04-22T01:58:09.297Z,86.40
2023-04-22T01:58:21.044Z,86.30
2023-04-22T01:58:33.850Z,86.30
2023-04-22T01:58:45.697Z,86.50
2023-04-22T01:58:57.629Z,86.60
2023-04-22T01:59:09.451Z,86.50
2023-04-22T01:59:22.018Z,86.50
2023-04-22T01:59:33.829Z,86.60
2023-04-22T01:59:45.663Z,86.50
2023-04-22T01:59:58.494Z,86.50
2023-04-22T02:00:10.952Z,86.40
2023-04-22T02:00:22.758Z,86.10
2023-04-22T02:00:34.587Z,86.00
2023-04-22T02:00:47.860Z,86.30
2023-04-22T02:00:59.589Z,86.40
2023-04-22T02:01:11.898Z,86.30
2023-04-22T02:01:23.748Z,86.40
2023-04-22T02:01:35.878Z,86.50
2023-04-22T02:01:48.168Z,86.60
2023-04-22T02:02:00.633Z,86.90
2023-04-22T02:02:12.662Z,87.00
2023-04-22T02:02:24.572Z,86.80
2023-04-22T02:02:36.533Z,86.70
2023-04-22T02:02:48.482Z,86.50
2023-04-22T02:03:00.656Z,86.60
2023-04-22T02:03:12.596Z,86.60
2023-04-22T02:03:24.555Z,86.70
2023-04-22T02:03:36.598Z,86.70
2023-04-22T02:03:48.561Z,86.70
2023-04-22T02:04:00.357Z,86.50
2023-04-22T02:04:12.081Z,87.10
2023-04-22T02:04:23.849Z,86.60
2023-04-22T02:04:35.874Z,86.60
2023-04-22T02:04:47.703Z,86.70
2023-04-22T02:04:59.485Z,87.00
2023-04-22T02:05:11.682Z,87.00
2023-04-22T02:05:23.656Z,87.20
2023-04-22T02:05:36.841Z,87.00
2023-04-22T02:05:48.673Z,86.30
2023-04-22T02:06:00.509Z,86.40
2023-04-22T02:06:12.303Z,86.30
2023-04-22T02:06:24.039Z,86.30
2023-04-22T02:06:35.894Z,86.30
2023-04-22T02:06:47.655Z,86.30
2023-04-22T02:06:59.430Z,86.10
2023-04-22T02:07:11.207Z,86.40
2023-04-22T02:07:23.172Z,86.30
2023-04-22T02:07:36.374Z,86.20
2023-04-22T02:07:52.204Z,86.10
2023-04-22T02:08:04.992Z,85.70
2023-04-22T02:08:16.930Z,85.80
2023-04-22T02:08:28.766Z,85.90
2023-04-22T02:08:40.545Z,86.20
2023-04-22T02:08:52.261Z,85.90
2023-04-22T02:09:04.764Z,85.80
2023-04-22T02:09:16.636Z,86.00
2023-04-22T02:09:28.399Z,86.20
2023-04-22T02:09:40.539Z,86.10
2023-04-22T02:09:52.688Z,86.00
2023-04-22T02:10:05.713Z,86.10
2023-04-22T02:10:17.651Z,86.20
2023-04-22T02:10:29.413Z,86.40
2023-04-22T02:10:41.185Z,86.40
2023-04-22T02:10:52.928Z,86.00
2023-04-22T02:11:04.730Z,86.30
2023-04-22T02:11:16.602Z,86.80
2023-04-22T02:11:28.411Z,86.20
2023-04-22T02:11:40.167Z,85.80
2023-04-22T02:11:51.892Z,85.70
2023-04-22T02:12:03.797Z,85.60
2023-04-22T02:12:15.531Z,85.50
2023-04-22T02:12:27.442Z,85.60
2023-04-22T02:12:39.419Z,85.90
2023-04-22T02:12:51.227Z,85.90
2023-04-22T02:13:03.002Z,85.80
2023-04-22T02:13:14.820Z,85.60
2023-04-22T02:13:27.770Z,85.60
2023-04-22T02:13:40.328Z,85.80
2023-04-22T02:13:52.198Z,85.90
2023-04-22T02:14:03.923Z,85.80
2023-04-22T02:14:15.633Z,85.50
2023-04-22T02:14:27.542Z,85.70
2023-04-22T02:14:39.277Z,85.80
2023-04-22T02:14:51.001Z,85.60
2023-04-22T02:15:02.928Z,85.80
2023-04-22T02:15:14.699Z,85.30
2023-04-22T02:15:26.449Z,85.20
2023-04-22T02:15:40.014Z,85.10
2023-04-22T02:15:51.902Z,84.80
2023-04-22T02:16:04.123Z,85.00
2023-04-22T02:16:15.972Z,85.30
2023-04-22T02:16:27.833Z,85.30
2023-04-22T02:16:41.384Z,85.20
2023-04-22T02:16:54.398Z,84.70
2023-04-22T02:17:06.152Z,84.90
2023-04-22T02:17:17.913Z,84.70
2023-04-22T02:17:29.768Z,84.90
2023-04-22T02:17:42.218Z,85.00
2023-04-22T02:17:54.013Z,85.00
2023-04-22T02:18:06.244Z,85.20
2023-04-22T02:18:19.612Z,85.20
2023-04-22T02:18:31.387Z,85.10
2023-04-22T02:18:43.329Z,85.20
2023-04-22T02:18:55.283Z,85.20
2023-04-22T02:19:07.019Z,85.00
2023-04-22T02:19:18.907Z,84.70
2023-04-22T02:19:30.732Z,84.80
2023-04-22T02:19:42.798Z,84.90
2023-04-22T02:19:54.953Z,84.90
2023-04-22T02:20:07.656Z,85.20
2023-04-22T02:20:19.526Z,85.10
2023-04-22T02:20:31.516Z,85.20
2023-04-22T02:20:43.432Z,85.10
2023-04-22T02:20:55.323Z,85.10
2023-04-22T02:21:07.104Z,85.20
2023-04-22T02:21:18.869Z,85.20
2023-04-22T02:21:32.353Z,85.40
2023-04-22T02:21:44.268Z,85.10
2023-04-22T02:21:56.159Z,85.20
2023-04-22T02:22:08.050Z,85.20
2023-04-22T02:22:19.923Z,85.20
2023-04-22T02:22:33.734Z,85.00
2023-04-22T02:22:45.480Z,85.20
2023-04-22T02:22:57.358Z,85.20
2023-04-22T02:23:09.151Z,84.80
2023-04-22T02:23:20.959Z,85.10
2023-04-22T02:23:33.165Z,85.30
2023-04-22T02:23:44.901Z,85.50
2023-04-22T02:23:56.749Z,85.30
2023-04-22T02:24:08.664Z,85.20
2023-04-22T02:24:20.444Z,85.50
2023-04-22T02:24:32.236Z,85.40
2023-04-22T02:24:43.953Z,85.40
2023-04-22T02:24:56.135Z,85.40
2023-04-22T02:25:08.719Z,85.60
2023-04-22T02:25:20.978Z,85.60
2023-04-22T02:25:32.760Z,85.40
2023-04-22T02:25:52.143Z,85.30
2023-04-22T02:26:04.142Z,85.30
2023-04-22T02:26:15.963Z,85.40
2023-04-22T02:26:27.984Z,85.30
2023-04-22T02:26:39.919Z,85.30
2023-04-22T02:26:51.690Z,85.30
2023-04-22T02:27:03.499Z,85.40
2023-04-22T02:27:15.310Z,85.50
2023-04-22T02:27:27.298Z,85.40
2023-04-22T02:27:39.562Z,86.20
2023-04-22T02:27:51.451Z,85.30
2023-04-22T02:28:03.166Z,85.30
2023-04-22T02:28:14.881Z,85.30
2023-04-22T02:28:26.786Z,85.30
2023-04-22T02:28:38.763Z,85.30
2023-04-22T02:28:50.582Z,85.60
2023-04-22T02:29:02.496Z,85.70
2023-04-22T02:29:14.237Z,85.60
2023-04-22T02:29:26.057Z,85.60
2023-04-22T02:29:38.103Z,85.60
2023-04-22T02:29:50.097Z,85.70
2023-04-22T02:30:01.905Z,85.60
2023-04-22T02:30:13.851Z,85.40
2023-04-22T02:30:25.701Z,85.20
2023-04-22T02:30:37.462Z,85.00
2023-04-22T02:30:49.235Z,85.20
2023-04-22T02:31:01.272Z,85.10
2023-04-22T02:31:13.320Z,85.10
2023-04-22T02:31:25.320Z,84.90
2023-04-22T02:31:37.233Z,84.80
2023-04-22T02:31:49.131Z,85.00
2023-04-22T02:32:01.256Z,85.00
2023-04-22T02:32:13.042Z,85.30
2023-04-22T02:32:24.931Z,85.40
2023-04-22T02:32:39.025Z,85.10
2023-04-22T02:32:51.100Z,84.70
2023-04-22T02:33:03.981Z,85.00
2023-04-22T02:33:15.748Z,85.10
2023-04-22T02:33:27.680Z,84.80
2023-04-22T02:33:39.452Z,85.00
2023-04-22T02:33:51.232Z,85.00
2023-04-22T02:34:03.067Z,85.10
2023-04-22T02:34:14.863Z,84.90
2023-04-22T02:34:26.943Z,85.00
2023-04-22T02:34:38.697Z,85.10
2023-04-22T02:34:50.754Z,85.10
2023-04-22T02:35:03.256Z,85.10
2023-04-22T02:35:15.326Z,85.00
2023-04-22T02:35:27.064Z,85.00
2023-04-22T02:35:39.013Z,85.20
2023-04-22T02:35:50.740Z,85.30
2023-04-22T02:36:02.476Z,85.50